sensor_id;sensor_type;location;lat;lon;timestamp;pressure;altitude;pressure_sealevel;temperature;humidity
45793;BME280;31495;42.740;22.908;2023-07-31T00:00:41;92838.69;;;21.32;69.42
45793;BME280;31495;42.740;22.908;2023-07-31T00:01:40;92838.94;;;21.35;69.44
45793;BME280;31495;42.740;22.908;2023-07-31T00:02:41;92795.59;;;21.08;69.57
45793;BME280;31495;42.740;22.908;2023-07-31T00:03:40;92833.16;;;21.33;70.46
45793;BME280;31495;42.740;22.908;2023-07-31T00:04:40;92834.16;;;21.37;70.31
45793;BME280;31495;42.740;22.908;2023-07-31T00:05:39;92818.59;;;21.22;70.00
45793;BME280;31495;42.740;22.908;2023-07-31T00:06:38;92834.81;;;21.29;70.49
45793;BME280;31495;42.740;22.908;2023-07-31T00:07:38;92806.63;;;21.10;70.68
45793;BME280;31495;42.740;22.908;2023-07-31T00:08:37;92823.78;;;21.27;70.49
45793;BME280;31495;42.740;22.908;2023-07-31T00:09:37;92824.06;;;21.25;70.57
45793;BME280;31495;42.740;22.908;2023-07-31T00:10:36;92807.63;;;21.15;71.11
45793;BME280;31495;42.740;22.908;2023-07-31T00:11:36;92806.13;;;21.08;71.30
45793;BME280;31495;42.740;22.908;2023-07-31T00:12:35;92827.31;;;21.17;71.32
45793;BME280;31495;42.740;22.908;2023-07-31T00:13:35;92819.16;;;21.19;70.98
45793;BME280;31495;42.740;22.908;2023-07-31T00:14:35;92814.59;;;21.05;71.20
45793;BME280;31495;42.740;22.908;2023-07-31T00:15:34;92799.41;;;20.97;71.43
45793;BME280;31495;42.740;22.908;2023-07-31T00:16:33;92788.03;;;20.83;70.98
45793;BME280;31495;42.740;22.908;2023-07-31T00:17:33;92797.47;;;20.84;71.98
45793;BME280;31495;42.740;22.908;2023-07-31T00:18:33;92806.31;;;20.93;71.51
45793;BME280;31495;42.740;22.908;2023-07-31T00:19:32;92806.31;;;20.93;71.71
45793;BME280;31495;42.740;22.908;2023-07-31T00:20:31;92802.91;;;20.92;71.79
45793;BME280;31495;42.740;22.908;2023-07-31T00:21:31;92808.81;;;21.03;71.83
45793;BME280;31495;42.740;22.908;2023-07-31T00:22:30;92813.97;;;21.14;72.31
45793;BME280;31495;42.740;22.908;2023-07-31T00:23:30;92810.31;;;21.09;71.89
45793;BME280;31495;42.740;22.908;2023-07-31T00:24:29;92799.94;;;20.99;72.06
45793;BME280;31495;42.740;22.908;2023-07-31T00:25:29;92822.06;;;21.17;72.17
45793;BME280;31495;42.740;22.908;2023-07-31T00:26:28;92809.03;;;21.07;72.54
45793;BME280;31495;42.740;22.908;2023-07-31T00:27:28;92821.84;;;21.14;71.86
45793;BME280;31495;42.740;22.908;2023-07-31T00:28:27;92810.25;;;21.15;71.62
45793;BME280;31495;42.740;22.908;2023-07-31T00:29:28;92820.78;;;21.15;71.67
45793;BME280;31495;42.740;22.908;2023-07-31T00:30:27;92718.63;;;20.60;71.39
45793;BME280;31495;42.740;22.908;2023-07-31T00:31:27;92810.63;;;21.27;71.09
45793;BME280;31495;42.740;22.908;2023-07-31T00:32:26;92813.25;;;21.27;71.06
45793;BME280;31495;42.740;22.908;2023-07-31T00:33:25;92806.63;;;21.29;71.81
45793;BME280;31495;42.740;22.908;2023-07-31T00:34:26;92777.13;;;21.14;71.93
45793;BME280;31495;42.740;22.908;2023-07-31T00:35:26;92799.53;;;21.30;71.74
45793;BME280;31495;42.740;22.908;2023-07-31T00:36:25;92790.16;;;21.24;71.66
45793;BME280;31495;42.740;22.908;2023-07-31T00:37:25;92792.69;;;21.29;71.79
45793;BME280;31495;42.740;22.908;2023-07-31T00:38:24;92785.25;;;21.17;71.94
45793;BME280;31495;42.740;22.908;2023-07-31T00:39:23;92803.31;;;21.24;71.96
45793;BME280;31495;42.740;22.908;2023-07-31T00:40:23;92801.66;;;21.28;71.98
45793;BME280;31495;42.740;22.908;2023-07-31T00:41:22;92791.97;;;21.23;72.27
45793;BME280;31495;42.740;22.908;2023-07-31T00:42:22;92805.44;;;21.22;72.13
45793;BME280;31495;42.740;22.908;2023-07-31T00:43:21;92798.81;;;21.24;72.07
45793;BME280;31495;42.740;22.908;2023-07-31T00:44:21;92803.72;;;21.31;72.15
45793;BME280;31495;42.740;22.908;2023-07-31T00:45:21;92763.03;;;21.04;70.87
45793;BME280;31495;42.740;22.908;2023-07-31T00:46:23;92807.19;;;21.26;71.04
45793;BME280;31495;42.740;22.908;2023-07-31T00:47:22;92791.13;;;21.09;70.90
45793;BME280;31495;42.740;22.908;2023-07-31T00:48:21;92812.59;;;21.16;71.29
45793;BME280;31495;42.740;22.908;2023-07-31T00:49:22;92806.56;;;21.16;71.75
45793;BME280;31495;42.740;22.908;2023-07-31T00:50:25;92790.13;;;21.05;71.33
45793;BME280;31495;42.740;22.908;2023-07-31T00:51:25;92764.44;;;20.97;70.87
45793;BME280;31495;42.740;22.908;2023-07-31T00:52:24;92790.28;;;21.14;70.57
45793;BME280;31495;42.740;22.908;2023-07-31T00:53:24;92794.59;;;21.04;70.75
45793;BME280;31495;42.740;22.908;2023-07-31T00:54:24;92796.03;;;21.16;70.23
45793;BME280;31495;42.740;22.908;2023-07-31T00:55:24;92797.03;;;21.20;70.34
45793;BME280;31495;42.740;22.908;2023-07-31T00:56:25;92793.84;;;21.23;70.15
45793;BME280;31495;42.740;22.908;2023-07-31T00:57:25;92792.31;;;21.17;70.28
45793;BME280;31495;42.740;22.908;2023-07-31T00:58:24;92791.47;;;21.21;70.60
45793;BME280;31495;42.740;22.908;2023-07-31T00:59:24;92787.88;;;21.17;70.72
45793;BME280;31495;42.740;22.908;2023-07-31T01:00:23;92782.72;;;21.07;70.71
45793;BME280;31495;42.740;22.908;2023-07-31T01:01:23;92775.69;;;21.02;70.62
45793;BME280;31495;42.740;22.908;2023-07-31T01:02:22;92793.41;;;21.16;70.58
45793;BME280;31495;42.740;22.908;2023-07-31T01:03:22;92793.91;;;21.18;71.05
45793;BME280;31495;42.740;22.908;2023-07-31T01:04:22;92774.69;;;20.98;71.35
45793;BME280;31495;42.740;22.908;2023-07-31T01:07:25;92794.13;;;21.21;71.00
45793;BME280;31495;42.740;22.908;2023-07-31T01:09:36;92798.81;;;21.24;71.17
45793;BME280;31495;42.740;22.908;2023-07-31T01:10:46;92799.59;;;21.25;71.70
45793;BME280;31495;42.740;22.908;2023-07-31T01:11:53;92801.44;;;21.24;71.78
45793;BME280;31495;42.740;22.908;2023-07-31T01:12:53;92773.28;;;21.06;71.60
45793;BME280;31495;42.740;22.908;2023-07-31T01:13:56;92800.81;;;21.33;71.56
45793;BME280;31495;42.740;22.908;2023-07-31T01:15:06;92790.63;;;21.26;71.46
45793;BME280;31495;42.740;22.908;2023-07-31T01:16:10;92776.63;;;21.11;71.36
45793;BME280;31495;42.740;22.908;2023-07-31T01:17:09;92767.00;;;21.02;71.42
45793;BME280;31495;42.740;22.908;2023-07-31T01:18:08;92778.19;;;21.13;71.53
45793;BME280;31495;42.740;22.908;2023-07-31T01:19:09;92773.00;;;21.07;71.35
45793;BME280;31495;42.740;22.908;2023-07-31T01:20:22;92798.53;;;21.26;71.65
45793;BME280;31495;42.740;22.908;2023-07-31T01:24:22;92802.22;;;21.25;71.70
45793;BME280;31495;42.740;22.908;2023-07-31T01:26:44;92797.47;;;21.27;71.73
45793;BME280;31495;42.740;22.908;2023-07-31T01:28:08;92808.00;;;21.27;71.55
45793;BME280;31495;42.740;22.908;2023-07-31T01:29:26;92804.06;;;21.24;71.30
45793;BME280;31495;42.740;22.908;2023-07-31T01:30:33;92790.78;;;21.16;71.44
45793;BME280;31495;42.740;22.908;2023-07-31T01:31:36;92795.69;;;21.22;71.39
45793;BME280;31495;42.740;22.908;2023-07-31T01:32:38;92794.59;;;21.23;71.19
45793;BME280;31495;42.740;22.908;2023-07-31T01:33:39;92785.38;;;21.26;70.80
45793;BME280;31495;42.740;22.908;2023-07-31T01:34:39;92804.22;;;21.33;70.92
45793;BME280;31495;42.740;22.908;2023-07-31T01:35:44;92748.03;;;21.05;70.78
45793;BME280;31495;42.740;22.908;2023-07-31T01:36:45;92792.69;;;21.29;70.64
45793;BME280;31495;42.740;22.908;2023-07-31T01:37:45;92797.88;;;21.34;70.73
45793;BME280;31495;42.740;22.908;2023-07-31T01:38:45;92794.28;;;21.30;70.91
45793;BME280;31495;42.740;22.908;2023-07-31T01:39:44;92773.41;;;21.15;71.00
45793;BME280;31495;42.740;22.908;2023-07-31T01:40:44;92775.97;;;21.20;70.93
45793;BME280;31495;42.740;22.908;2023-07-31T01:41:43;92804.50;;;21.32;71.17
45793;BME280;31495;42.740;22.908;2023-07-31T01:42:42;92774.72;;;21.17;71.37
45793;BME280;31495;42.740;22.908;2023-07-31T01:43:42;92788.78;;;21.26;70.96
45793;BME280;31495;42.740;22.908;2023-07-31T01:44:41;92774.19;;;21.15;70.84
45793;BME280;31495;42.740;22.908;2023-07-31T01:45:41;92796.38;;;21.28;70.86
45793;BME280;31495;42.740;22.908;2023-07-31T01:46:40;92787.03;;;21.22;71.04
45793;BME280;31495;42.740;22.908;2023-07-31T01:47:40;92791.34;;;21.32;71.17
45793;BME280;31495;42.740;22.908;2023-07-31T01:48:39;92779.41;;;21.20;71.09
45793;BME280;31495;42.740;22.908;2023-07-31T01:49:39;92773.22;;;21.11;71.05
45793;BME280;31495;42.740;22.908;2023-07-31T01:50:38;92767.25;;;21.05;71.32
45793;BME280;31495;42.740;22.908;2023-07-31T01:51:37;92788.66;;;21.18;70.63
45793;BME280;31495;42.740;22.908;2023-07-31T01:52:37;92775.63;;;21.07;70.97
45793;BME280;31495;42.740;22.908;2023-07-31T01:53:36;92764.88;;;20.85;71.65
45793;BME280;31495;42.740;22.908;2023-07-31T01:54:36;92769.16;;;20.75;71.68
45793;BME280;31495;42.740;22.908;2023-07-31T01:55:36;92799.19;;;20.93;72.32
45793;BME280;31495;42.740;22.908;2023-07-31T01:56:35;92772.09;;;20.74;72.10
45793;BME280;31495;42.740;22.908;2023-07-31T01:57:36;92789.53;;;20.89;71.88
45793;BME280;31495;42.740;22.908;2023-07-31T01:58:36;92796.28;;;20.95;71.87
45793;BME280;31495;42.740;22.908;2023-07-31T01:59:35;92768.47;;;20.70;72.29
45793;BME280;31495;42.740;22.908;2023-07-31T02:00:34;92804.47;;;20.93;72.58
45793;BME280;31495;42.740;22.908;2023-07-31T02:01:34;92777.25;;;20.84;72.55
45793;BME280;31495;42.740;22.908;2023-07-31T02:02:33;92799.13;;;20.99;72.17
45793;BME280;31495;42.740;22.908;2023-07-31T02:03:33;92789.19;;;20.96;72.11
45793;BME280;31495;42.740;22.908;2023-07-31T02:04:32;92797.94;;;21.10;71.92
45793;BME280;31495;42.740;22.908;2023-07-31T02:05:31;92795.59;;;21.08;71.80
45793;BME280;31495;42.740;22.908;2023-07-31T02:06:31;92797.50;;;21.03;71.96
45793;BME280;31495;42.740;22.908;2023-07-31T02:07:30;92797.50;;;21.03;71.96
45793;BME280;31495;42.740;22.908;2023-07-31T02:08:30;92782.09;;;20.96;72.23
45793;BME280;31495;42.740;22.908;2023-07-31T02:09:29;92800.16;;;21.03;72.35
45793;BME280;31495;42.740;22.908;2023-07-31T02:10:29;92791.75;;;21.01;71.95
45793;BME280;31495;42.740;22.908;2023-07-31T02:11:28;92734.63;;;20.63;72.38
45793;BME280;31495;42.740;22.908;2023-07-31T02:12:28;92784.59;;;20.82;72.77
45793;BME280;31495;42.740;22.908;2023-07-31T02:13:30;92781.75;;;20.79;72.85
45793;BME280;31495;42.740;22.908;2023-07-31T02:14:30;92791.22;;;20.80;72.82
45793;BME280;31495;42.740;22.908;2023-07-31T02:15:30;92792.00;;;20.80;73.13
45793;BME280;31495;42.740;22.908;2023-07-31T02:16:29;92794.47;;;20.71;73.58
45793;BME280;31495;42.740;22.908;2023-07-31T02:17:29;92790.34;;;20.60;73.97
45793;BME280;31495;42.740;22.908;2023-07-31T02:18:29;92777.94;;;20.42;73.99
45793;BME280;31495;42.740;22.908;2023-07-31T02:19:28;92760.44;;;20.32;74.43
45793;BME280;31495;42.740;22.908;2023-07-31T02:20:27;92789.88;;;20.58;74.08
45793;BME280;31495;42.740;22.908;2023-07-31T02:21:27;92790.84;;;20.62;74.10
45793;BME280;31495;42.740;22.908;2023-07-31T02:22:26;92777.91;;;20.47;74.23
45793;BME280;31495;42.740;22.908;2023-07-31T02:23:25;92771.63;;;20.43;74.31
45793;BME280;31495;42.740;22.908;2023-07-31T02:24:25;92759.59;;;20.36;74.55
45793;BME280;31495;42.740;22.908;2023-07-31T02:25:24;92775.88;;;20.38;74.66
45793;BME280;31495;42.740;22.908;2023-07-31T02:26:24;92786.72;;;20.56;74.49
45793;BME280;31495;42.740;22.908;2023-07-31T02:27:23;92780.75;;;20.50;74.14
45793;BME280;31495;42.740;22.908;2023-07-31T02:28:26;92787.50;;;20.56;74.45
45793;BME280;31495;42.740;22.908;2023-07-31T02:29:26;92753.28;;;20.37;74.17
45793;BME280;31495;42.740;22.908;2023-07-31T02:30:25;92791.63;;;20.63;74.42
45793;BME280;31495;42.740;22.908;2023-07-31T02:31:24;92775.00;;;20.48;74.28
45793;BME280;31495;42.740;22.908;2023-07-31T02:32:24;92772.69;;;20.42;74.02
45793;BME280;31495;42.740;22.908;2023-07-31T02:33:23;92765.94;;;20.35;74.07
45793;BME280;31495;42.740;22.908;2023-07-31T02:34:23;92778.44;;;20.44;74.33
45793;BME280;31495;42.740;22.908;2023-07-31T02:35:22;92740.59;;;20.20;74.26
45793;BME280;31495;42.740;22.908;2023-07-31T02:36:22;92782.66;;;20.45;74.64
45793;BME280;31495;42.740;22.908;2023-07-31T02:37:21;92767.19;;;20.38;74.37
45793;BME280;31495;42.740;22.908;2023-07-31T02:38:21;92781.50;;;20.51;74.55
45793;BME280;31495;42.740;22.908;2023-07-31T02:39:20;92775.50;;;20.50;74.18
45793;BME280;31495;42.740;22.908;2023-07-31T02:40:19;92775.44;;;20.55;73.46
45793;BME280;31495;42.740;22.908;2023-07-31T02:41:19;92778.81;;;20.56;73.39
45793;BME280;31495;42.740;22.908;2023-07-31T02:42:18;92806.53;;;20.72;73.57
45793;BME280;31495;42.740;22.908;2023-07-31T02:43:18;92785.16;;;20.55;73.80
45793;BME280;31495;42.740;22.908;2023-07-31T02:44:17;92802.72;;;20.60;74.30
45793;BME280;31495;42.740;22.908;2023-07-31T02:45:17;92797.19;;;20.61;74.56
45793;BME280;31495;42.740;22.908;2023-07-31T02:46:17;92790.34;;;20.60;74.64
45793;BME280;31495;42.740;22.908;2023-07-31T02:47:17;92766.63;;;20.41;74.05
45793;BME280;31495;42.740;22.908;2023-07-31T02:48:16;92800.28;;;20.68;74.27
45793;BME280;31495;42.740;22.908;2023-07-31T02:49:16;92798.91;;;20.76;74.28
45793;BME280;31495;42.740;22.908;2023-07-31T02:50:15;92791.78;;;20.77;73.93
45793;BME280;31495;42.740;22.908;2023-07-31T02:51:15;92808.53;;;20.81;74.28
45793;BME280;31495;42.740;22.908;2023-07-31T02:52:14;92802.50;;;20.80;74.19
45793;BME280;31495;42.740;22.908;2023-07-31T02:53:13;92803.88;;;20.78;74.11
45793;BME280;31495;42.740;22.908;2023-07-31T02:54:13;92801.81;;;20.74;74.33
45793;BME280;31495;42.740;22.908;2023-07-31T02:55:13;92777.22;;;20.60;74.32
45793;BME280;31495;42.740;22.908;2023-07-31T02:56:13;92771.19;;;20.60;74.24
45793;BME280;31495;42.740;22.908;2023-07-31T02:57:13;92805.69;;;20.77;74.52
45793;BME280;31495;42.740;22.908;2023-07-31T02:58:12;92806.16;;;20.84;74.18
45793;BME280;31495;42.740;22.908;2023-07-31T02:59:11;92778.75;;;20.66;74.04
45793;BME280;31495;42.740;22.908;2023-07-31T03:00:11;92799.38;;;20.78;73.92
45793;BME280;31495;42.740;22.908;2023-07-31T03:01:10;92791.50;;;20.78;73.54
45793;BME280;31495;42.740;22.908;2023-07-31T03:02:10;92807.50;;;20.82;72.54
45793;BME280;31495;42.740;22.908;2023-07-31T03:03:10;92814.88;;;20.80;72.94
45793;BME280;31495;42.740;22.908;2023-07-31T03:04:10;92812.31;;;20.74;73.62
45793;BME280;31495;42.740;22.908;2023-07-31T03:05:09;92809.41;;;20.76;73.71
45793;BME280;31495;42.740;22.908;2023-07-31T03:06:09;92796.34;;;20.66;74.17
45793;BME280;31495;42.740;22.908;2023-07-31T03:07:08;92813.81;;;20.81;74.12
45793;BME280;31495;42.740;22.908;2023-07-31T03:08:08;92809.69;;;20.74;73.95
45793;BME280;31495;42.740;22.908;2023-07-31T03:09:07;92817.44;;;20.85;73.85
45793;BME280;31495;42.740;22.908;2023-07-31T03:10:07;92814.31;;;20.83;73.67
45793;BME280;31495;42.740;22.908;2023-07-31T03:11:07;92793.97;;;20.69;73.53
45793;BME280;31495;42.740;22.908;2023-07-31T03:12:06;92797.66;;;20.68;73.45
45793;BME280;31495;42.740;22.908;2023-07-31T03:13:06;92819.88;;;20.81;73.51
45793;BME280;31495;42.740;22.908;2023-07-31T03:14:06;92775.81;;;20.44;73.52
45793;BME280;31495;42.740;22.908;2023-07-31T03:15:05;92824.44;;;20.70;73.89
45793;BME280;31495;42.740;22.908;2023-07-31T03:16:05;92821.81;;;20.70;73.66
45793;BME280;31495;42.740;22.908;2023-07-31T03:17:05;92801.00;;;20.50;73.93
45793;BME280;31495;42.740;22.908;2023-07-31T03:18:05;92822.19;;;20.59;73.92
45793;BME280;31495;42.740;22.908;2023-07-31T03:19:04;92821.63;;;20.62;74.23
45793;BME280;31495;42.740;22.908;2023-07-31T03:20:03;92806.25;;;20.50;74.42
45793;BME280;31495;42.740;22.908;2023-07-31T03:21:04;92828.81;;;20.51;74.01
45793;BME280;31495;42.740;22.908;2023-07-31T03:22:04;92823.34;;;20.47;74.23
45793;BME280;31495;42.740;22.908;2023-07-31T03:23:04;92820.78;;;20.42;74.05
45793;BME280;31495;42.740;22.908;2023-07-31T03:24:04;92813.91;;;20.17;74.85
45793;BME280;31495;42.740;22.908;2023-07-31T03:25:04;92822.03;;;20.20;74.69
45793;BME280;31495;42.740;22.908;2023-07-31T03:26:06;92816.66;;;20.31;74.65
45793;BME280;31495;42.740;22.908;2023-07-31T03:27:06;92828.09;;;20.45;74.54
45793;BME280;31495;42.740;22.908;2023-07-31T03:28:06;92824.66;;;20.50;74.87
45793;BME280;31495;42.740;22.908;2023-07-31T03:29:05;92803.75;;;20.34;74.91
45793;BME280;31495;42.740;22.908;2023-07-31T03:30:05;92803.47;;;20.36;74.91
45793;BME280;31495;42.740;22.908;2023-07-31T03:31:05;92831.16;;;20.52;74.83
45793;BME280;31495;42.740;22.908;2023-07-31T03:32:05;92812.13;;;20.42;74.75
45793;BME280;31495;42.740;22.908;2023-07-31T03:33:04;92813.16;;;20.41;74.86
45793;BME280;31495;42.740;22.908;2023-07-31T03:34:04;92814.22;;;20.39;74.94
45793;BME280;31495;42.740;22.908;2023-07-31T03:35:04;92821.00;;;20.46;75.16
45793;BME280;31495;42.740;22.908;2023-07-31T03:36:04;92817.31;;;20.47;74.78
45793;BME280;31495;42.740;22.908;2023-07-31T03:37:05;92824.88;;;20.53;74.79
45793;BME280;31495;42.740;22.908;2023-07-31T03:38:04;92837.16;;;20.58;74.47
45793;BME280;31495;42.740;22.908;2023-07-31T03:39:03;92822.78;;;20.50;74.72
45793;BME280;31495;42.740;22.908;2023-07-31T03:40:03;92811.25;;;20.46;74.41
45793;BME280;31495;42.740;22.908;2023-07-31T03:41:03;92827.66;;;20.62;74.40
45793;BME280;31495;42.740;22.908;2023-07-31T03:42:05;92832.88;;;20.67;74.04
45793;BME280;31495;42.740;22.908;2023-07-31T03:43:05;92823.72;;;20.65;74.32
45793;BME280;31495;42.740;22.908;2023-07-31T03:44:04;92828.44;;;20.63;74.28
45793;BME280;31495;42.740;22.908;2023-07-31T03:45:04;92811.78;;;20.48;74.55
45793;BME280;31495;42.740;22.908;2023-07-31T03:46:03;92825.56;;;20.64;74.38
45793;BME280;31495;42.740;22.908;2023-07-31T03:47:03;92829.47;;;20.67;74.35
45793;BME280;31495;42.740;22.908;2023-07-31T03:48:03;92791.09;;;20.42;74.51
45793;BME280;31495;42.740;22.908;2023-07-31T03:49:03;92820.38;;;20.54;74.41
45793;BME280;31495;42.740;22.908;2023-07-31T03:50:02;92833.41;;;20.69;73.64
45793;BME280;31495;42.740;22.908;2023-07-31T03:51:02;92840.16;;;20.75;73.19
45793;BME280;31495;42.740;22.908;2023-07-31T03:52:02;92841.28;;;20.69;73.60
45793;BME280;31495;42.740;22.908;2023-07-31T03:53:02;92837.44;;;20.56;74.06
45793;BME280;31495;42.740;22.908;2023-07-31T03:54:01;92839.44;;;20.41;73.53
45793;BME280;31495;42.740;22.908;2023-07-31T03:55:01;92853.63;;;20.39;74.07
45793;BME280;31495;42.740;22.908;2023-07-31T03:56:00;92835.78;;;20.36;73.90
45793;BME280;31495;42.740;22.908;2023-07-31T03:57:00;92857.72;;;20.51;74.27
45793;BME280;31495;42.740;22.908;2023-07-31T03:57:59;92857.22;;;20.49;74.58
45793;BME280;31495;42.740;22.908;2023-07-31T03:58:59;92853.81;;;20.48;74.16
45793;BME280;31495;42.740;22.908;2023-07-31T03:59:59;92837.19;;;20.29;74.21
45793;BME280;31495;42.740;22.908;2023-07-31T04:00:58;92853.13;;;20.37;74.68
45793;BME280;31495;42.740;22.908;2023-07-31T04:01:58;92855.75;;;20.37;75.16
45793;BME280;31495;42.740;22.908;2023-07-31T04:02:57;92851.66;;;20.26;75.46
45793;BME280;31495;42.740;22.908;2023-07-31T04:03:57;92856.69;;;20.23;74.76
45793;BME280;31495;42.740;22.908;2023-07-31T04:04:56;92842.34;;;20.10;74.85
45793;BME280;31495;42.740;22.908;2023-07-31T04:05:56;92859.63;;;20.16;74.94
45793;BME280;31495;42.740;22.908;2023-07-31T04:06:55;92846.84;;;20.04;74.91
45793;BME280;31495;42.740;22.908;2023-07-31T04:07:54;92869.31;;;20.20;74.94
45793;BME280;31495;42.740;22.908;2023-07-31T04:08:54;92867.13;;;20.28;75.22
45793;BME280;31495;42.740;22.908;2023-07-31T04:09:53;92864.88;;;20.16;74.41
45793;BME280;31495;42.740;22.908;2023-07-31T04:10:53;92874.78;;;20.24;74.68
45793;BME280;31495;42.740;22.908;2023-07-31T04:11:52;92863.25;;;20.20;75.29
45793;BME280;31495;42.740;22.908;2023-07-31T04:12:52;92845.72;;;20.15;74.90
45793;BME280;31495;42.740;22.908;2023-07-31T04:13:52;92868.88;;;20.37;74.33
45793;BME280;31495;42.740;22.908;2023-07-31T04:14:52;92836.81;;;20.11;73.55
45793;BME280;31495;42.740;22.908;2023-07-31T04:15:51;92865.59;;;20.22;74.35
45793;BME280;31495;42.740;22.908;2023-07-31T04:16:50;92854.53;;;20.25;74.77
45793;BME280;31495;42.740;22.908;2023-07-31T04:17:51;92862.59;;;20.38;74.88
45793;BME280;31495;42.740;22.908;2023-07-31T04:18:51;92862.97;;;20.51;74.39
45793;BME280;31495;42.740;22.908;2023-07-31T04:19:50;92832.44;;;20.31;74.72
45793;BME280;31495;42.740;22.908;2023-07-31T04:20:50;92870.25;;;20.64;74.65
45793;BME280;31495;42.740;22.908;2023-07-31T04:21:49;92838.16;;;20.62;74.10
45793;BME280;31495;42.740;22.908;2023-07-31T04:22:49;92859.59;;;20.80;73.82
45793;BME280;31495;42.740;22.908;2023-07-31T04:23:49;92866.91;;;20.83;74.01
45793;BME280;31495;42.740;22.908;2023-07-31T04:24:48;92833.63;;;20.73;73.82
45793;BME280;31495;42.740;22.908;2023-07-31T04:25:47;92862.31;;;20.93;73.14
45793;BME280;31495;42.740;22.908;2023-07-31T04:26:47;92815.50;;;20.71;72.49
45793;BME280;31495;42.740;22.908;2023-07-31T04:27:46;92842.84;;;20.95;72.05
45793;BME280;31495;42.740;22.908;2023-07-31T04:28:46;92855.88;;;21.05;71.94
45793;BME280;31495;42.740;22.908;2023-07-31T04:29:45;92854.03;;;21.05;71.97
45793;BME280;31495;42.740;22.908;2023-07-31T04:30:47;92857.66;;;20.85;71.35
45793;BME280;31495;42.740;22.908;2023-07-31T04:31:48;92863.44;;;20.63;71.52
45793;BME280;31495;42.740;22.908;2023-07-31T04:32:47;92842.75;;;20.22;71.63
45793;BME280;31495;42.740;22.908;2023-07-31T04:33:46;92863.34;;;20.39;71.87
45793;BME280;31495;42.740;22.908;2023-07-31T04:34:46;92870.25;;;20.35;71.32
45793;BME280;31495;42.740;22.908;2023-07-31T04:35:51;92823.09;;;19.85;71.86
45793;BME280;31495;42.740;22.908;2023-07-31T04:36:54;92865.81;;;19.96;72.58
45793;BME280;31495;42.740;22.908;2023-07-31T04:37:53;92875.03;;;19.93;72.83
45793;BME280;31495;42.740;22.908;2023-07-31T04:38:52;92861.94;;;19.88;73.21
45793;BME280;31495;42.740;22.908;2023-07-31T04:39:52;92845.63;;;19.91;73.09
45793;BME280;31495;42.740;22.908;2023-07-31T04:40:51;92865.22;;;20.04;73.25
45793;BME280;31495;42.740;22.908;2023-07-31T04:41:51;92856.81;;;20.07;73.37
45793;BME280;31495;42.740;22.908;2023-07-31T04:42:50;92853.31;;;20.17;73.09
45793;BME280;31495;42.740;22.908;2023-07-31T04:43:50;92845.50;;;20.07;73.08
45793;BME280;31495;42.740;22.908;2023-07-31T04:44:49;92839.09;;;20.18;72.94
45793;BME280;31495;42.740;22.908;2023-07-31T04:45:48;92825.47;;;20.16;72.31
45793;BME280;31495;42.740;22.908;2023-07-31T04:46:49;92837.25;;;20.24;72.06
45793;BME280;31495;42.740;22.908;2023-07-31T04:47:48;92859.41;;;20.42;72.13
45793;BME280;31495;42.740;22.908;2023-07-31T04:48:48;92855.63;;;20.53;71.48
45793;BME280;31495;42.740;22.908;2023-07-31T04:49:47;92829.94;;;20.45;71.53
45793;BME280;31495;42.740;22.908;2023-07-31T04:50:47;92867.84;;;20.63;71.30
45793;BME280;31495;42.740;22.908;2023-07-31T04:51:46;92861.81;;;20.62;70.61
45793;BME280;31495;42.740;22.908;2023-07-31T04:52:46;92864.22;;;20.59;70.34
45793;BME280;31495;42.740;22.908;2023-07-31T04:53:45;92869.97;;;20.61;69.78
45793;BME280;31495;42.740;22.908;2023-07-31T04:54:45;92849.41;;;20.44;70.23
45793;BME280;31495;42.740;22.908;2023-07-31T04:55:44;92875.84;;;20.52;69.64
45793;BME280;31495;42.740;22.908;2023-07-31T04:56:43;92874.03;;;20.48;69.55
45793;BME280;31495;42.740;22.908;2023-07-31T04:57:43;92861.97;;;20.47;69.63
45793;BME280;31495;42.740;22.908;2023-07-31T04:58:42;92865.75;;;20.35;69.32
45793;BME280;31495;42.740;22.908;2023-07-31T04:59:42;92839.16;;;20.13;68.63
45793;BME280;31495;42.740;22.908;2023-07-31T05:00:41;92855.34;;;20.25;70.03
45793;BME280;31495;42.740;22.908;2023-07-31T05:01:40;92867.03;;;20.38;70.50
45793;BME280;31495;42.740;22.908;2023-07-31T05:02:40;92861.84;;;20.33;69.96
45793;BME280;31495;42.740;22.908;2023-07-31T05:03:39;92849.34;;;20.19;69.99
45793;BME280;31495;42.740;22.908;2023-07-31T05:04:39;92857.94;;;20.30;69.35
45793;BME280;31495;42.740;22.908;2023-07-31T05:05:38;92846.16;;;20.23;69.59
45793;BME280;31495;42.740;22.908;2023-07-31T05:06:38;92872.94;;;20.25;69.88
45793;BME280;31495;42.740;22.908;2023-07-31T05:07:37;92849.44;;;20.09;69.61
45793;BME280;31495;42.740;22.908;2023-07-31T05:08:36;92866.69;;;20.20;70.14
45793;BME280;31495;42.740;22.908;2023-07-31T05:09:36;92867.97;;;20.23;70.18
45793;BME280;31495;42.740;22.908;2023-07-31T05:10:35;92848.66;;;20.09;70.42
45793;BME280;31495;42.740;22.908;2023-07-31T05:11:35;92868.03;;;20.13;70.43
45793;BME280;31495;42.740;22.908;2023-07-31T05:12:34;92852.75;;;20.20;70.35
45793;BME280;31495;42.740;22.908;2023-07-31T05:13:34;92846.09;;;19.98;68.59
45793;BME280;31495;42.740;22.908;2023-07-31T05:14:33;92840.66;;;19.90;69.05
45793;BME280;31495;42.740;22.908;2023-07-31T05:15:33;92865.97;;;20.10;69.82
45793;BME280;31495;42.740;22.908;2023-07-31T05:16:32;92865.59;;;20.22;69.75
45793;BME280;31495;42.740;22.908;2023-07-31T05:17:31;92864.91;;;20.11;68.60
45793;BME280;31495;42.740;22.908;2023-07-31T05:18:31;92862.84;;;20.08;68.12
45793;BME280;31495;42.740;22.908;2023-07-31T05:19:30;92871.72;;;20.12;68.49
45793;BME280;31495;42.740;22.908;2023-07-31T05:20:30;92864.16;;;20.05;68.36
45793;BME280;31495;42.740;22.908;2023-07-31T05:21:29;92856.28;;;20.05;69.32